sensor_id;sensor_type;location;lat;lon;timestamp;pressure;altitude;pressure_sealevel;temperature;humidity
61128;BME280;47013;42.664;23.242;2023-04-30T00:01:05;93727.13;;;10.18;75.00
61128;BME280;47013;42.664;23.242;2023-04-30T00:03:48;93721.38;;;10.16;75.04
61128;BME280;47013;42.664;23.242;2023-04-30T00:06:20;93723.69;;;10.14;75.23
61128;BME280;47013;42.664;23.242;2023-04-30T00:08:51;93717.16;;;10.12;75.65
61128;BME280;47013;42.664;23.242;2023-04-30T00:11:19;93724.50;;;10.11;75.47
61128;BME280;47013;42.664;23.242;2023-04-30T00:13:51;93724.16;;;10.09;75.39
61128;BME280;47013;42.664;23.242;2023-04-30T00:16:18;93727.28;;;10.08;75.40
61128;BME280;47013;42.664;23.242;2023-04-30T00:18:59;93722.25;;;10.06;75.49
61128;BME280;47013;42.664;23.242;2023-04-30T00:21:36;93720.38;;;10.03;76.07
61128;BME280;47013;42.664;23.242;2023-04-30T00:24:10;93718.44;;;10.03;75.46
61128;BME280;47013;42.664;23.242;2023-04-30T00:26:47;93723.47;;;10.01;76.00
61128;BME280;47013;42.664;23.242;2023-04-30T00:29:19;93727.72;;;10.02;76.03
61128;BME280;47013;42.664;23.242;2023-04-30T00:31:44;93715.34;;;10.01;76.17
61128;BME280;47013;42.664;23.242;2023-04-30T00:34:10;93719.22;;;10.00;76.30
61128;BME280;47013;42.664;23.242;2023-04-30T00:36:47;93726.22;;;9.98;76.31
61128;BME280;47013;42.664;23.242;2023-04-30T00:39:20;93725.88;;;9.96;76.25
61128;BME280;47013;42.664;23.242;2023-04-30T00:41:46;93725.09;;;9.95;76.32
61128;BME280;47013;42.664;23.242;2023-04-30T00:44:11;93722.44;;;9.92;76.06
61128;BME280;47013;42.664;23.242;2023-04-30T00:46:36;93722.84;;;9.90;76.60
61128;BME280;47013;42.664;23.242;2023-04-30T00:49:01;93717.88;;;9.85;76.27
61128;BME280;47013;42.664;23.242;2023-04-30T00:51:29;93717.91;;;9.82;76.37
61128;BME280;47013;42.664;23.242;2023-04-30T00:53:55;93713.28;;;9.82;77.16
61128;BME280;47013;42.664;23.242;2023-04-30T00:56:21;93716.75;;;9.83;76.84
61128;BME280;47013;42.664;23.242;2023-04-30T00:58:47;93712.88;;;9.84;76.73
61128;BME280;47013;42.664;23.242;2023-04-30T01:01:13;93716.38;;;9.81;76.75
61128;BME280;47013;42.664;23.242;2023-04-30T01:03:39;93712.50;;;9.82;75.91
61128;BME280;47013;42.664;23.242;2023-04-30T01:06:05;93709.09;;;9.78;73.35
61128;BME280;47013;42.664;23.242;2023-04-30T01:08:30;93708.63;;;9.83;72.84
61128;BME280;47013;42.664;23.242;2023-04-30T01:16:14;93702.56;;;10.02;71.15
61128;BME280;47013;42.664;23.242;2023-04-30T01:18:44;93701.66;;;10.12;70.29
61128;BME280;47013;42.664;23.242;2023-04-30T01:21:12;93697.69;;;10.20;69.42
61128;BME280;47013;42.664;23.242;2023-04-30T01:29:07;93695.38;;;10.49;68.25
61128;BME280;47013;42.664;23.242;2023-04-30T01:31:34;93705.94;;;10.40;68.26
61128;BME280;47013;42.664;23.242;2023-04-30T01:33:59;93703.91;;;10.48;68.90
61128;BME280;47013;42.664;23.242;2023-04-30T01:36:27;93708.09;;;10.52;69.09
61128;BME280;47013;42.664;23.242;2023-04-30T01:39:05;93706.91;;;10.53;70.31
61128;BME280;47013;42.664;23.242;2023-04-30T01:44:16;93707.31;;;10.52;71.17
61128;BME280;47013;42.664;23.242;2023-04-30T01:46:56;93706.31;;;10.42;71.39
61128;BME280;47013;42.664;23.242;2023-04-30T01:49:31;93710.56;;;10.43;71.46
61128;BME280;47013;42.664;23.242;2023-04-30T02:28:38;93707.38;;;9.91;74.49
61128;BME280;47013;42.664;23.242;2023-04-30T02:31:28;93708.16;;;9.88;73.42
61128;BME280;47013;42.664;23.242;2023-04-30T02:34:18;93705.47;;;9.88;73.71
61128;BME280;47013;42.664;23.242;2023-04-30T02:37:08;93709.69;;;9.89;74.56
61128;BME280;47013;42.664;23.242;2023-04-30T02:39:59;93707.38;;;9.91;75.02
61128;BME280;47013;42.664;23.242;2023-04-30T02:42:48;93707.72;;;9.93;75.18
61128;BME280;47013;42.664;23.242;2023-04-30T02:48:29;93712.31;;;9.96;75.68
61128;BME280;47013;42.664;23.242;2023-04-30T02:50:54;93714.63;;;9.97;75.68
61128;BME280;47013;42.664;23.242;2023-04-30T02:53:20;93715.41;;;9.98;76.13
61128;BME280;47013;42.664;23.242;2023-04-30T02:55:45;93718.06;;;10.01;76.07
61128;BME280;47013;42.664;23.242;2023-04-30T02:58:11;93722.28;;;10.02;76.63
61128;BME280;47013;42.664;23.242;2023-04-30T03:00:37;93715.72;;;10.03;76.77
61128;BME280;47013;42.664;23.242;2023-04-30T03:03:02;93721.91;;;10.04;77.06
61128;BME280;47013;42.664;23.242;2023-04-30T03:05:28;93723.81;;;10.07;77.14
61128;BME280;47013;42.664;23.242;2023-04-30T03:07:54;93714.09;;;10.10;77.66
61128;BME280;47013;42.664;23.242;2023-04-30T03:10:19;93721.81;;;10.11;77.19
61128;BME280;47013;42.664;23.242;2023-04-30T03:12:45;93720.97;;;10.14;77.65
61128;BME280;47013;42.664;23.242;2023-04-30T03:15:10;93723.69;;;10.14;77.48
61128;BME280;47013;42.664;23.242;2023-04-30T03:17:35;93732.22;;;10.13;78.21
61128;BME280;47013;42.664;23.242;2023-04-30T03:20:01;93731.47;;;10.12;78.10
61128;BME280;47013;42.664;23.242;2023-04-30T03:22:26;93733.75;;;10.14;78.71
61128;BME280;47013;42.664;23.242;2023-04-30T03:24:51;93734.16;;;10.12;79.00
61128;BME280;47013;42.664;23.242;2023-04-30T03:27:17;93735.69;;;10.13;78.79
61128;BME280;47013;42.664;23.242;2023-04-30T03:29:42;93739.94;;;10.14;78.63
61128;BME280;47013;42.664;23.242;2023-04-30T03:32:07;93736.06;;;10.15;79.08
61128;BME280;47013;42.664;23.242;2023-04-30T03:34:33;93745.75;;;10.16;79.37
61128;BME280;47013;42.664;23.242;2023-04-30T03:36:58;93734.91;;;10.16;79.72
61128;BME280;47013;42.664;23.242;2023-04-30T03:39:25;93748.03;;;10.18;79.49
61128;BME280;47013;42.664;23.242;2023-04-30T03:41:51;93749.56;;;10.19;79.43
61128;BME280;47013;42.664;23.242;2023-04-30T03:44:16;93747.28;;;10.17;79.36
61128;BME280;47013;42.664;23.242;2023-04-30T03:46:41;93749.16;;;10.20;79.94
61128;BME280;47013;42.664;23.242;2023-04-30T03:49:10;93758.44;;;10.23;79.45
61128;BME280;47013;42.664;23.242;2023-04-30T03:51:35;93758.06;;;10.21;79.58
61128;BME280;47013;42.664;23.242;2023-04-30T03:54:04;93754.56;;;10.24;79.18
61128;BME280;47013;42.664;23.242;2023-04-30T03:56:30;93756.03;;;10.28;79.16
61128;BME280;47013;42.664;23.242;2023-04-30T03:58:55;93765.72;;;10.29;79.00
61128;BME280;47013;42.664;23.242;2023-04-30T04:01:20;93763.72;;;10.33;79.09
61128;BME280;47013;42.664;23.242;2023-04-30T04:03:46;93765.63;;;10.37;79.08
61128;BME280;47013;42.664;23.242;2023-04-30T04:06:11;93758.63;;;10.39;77.99
61128;BME280;47013;42.664;23.242;2023-04-30T04:08:36;93774.09;;;10.42;79.22
61128;BME280;47013;42.664;23.242;2023-04-30T04:11:01;93765.19;;;10.42;79.25
61128;BME280;47013;42.664;23.242;2023-04-30T04:13:27;93769.00;;;10.44;79.16
61128;BME280;47013;42.664;23.242;2023-04-30T04:15:52;93774.38;;;10.48;78.69
61128;BME280;47013;42.664;23.242;2023-04-30T04:18:17;93770.50;;;10.49;77.84
61128;BME280;47013;42.664;23.242;2023-04-30T04:20:42;93770.03;;;10.54;77.62
61128;BME280;47013;42.664;23.242;2023-04-30T04:23:08;93773.97;;;10.49;77.75
61128;BME280;47013;42.664;23.242;2023-04-30T04:25:33;93781.25;;;10.56;76.78
61128;BME280;47013;42.664;23.242;2023-04-30T04:27:59;93770.34;;;10.59;77.48
61128;BME280;47013;42.664;23.242;2023-04-30T04:30:24;93777.19;;;10.68;76.60
61128;BME280;47013;42.664;23.242;2023-04-30T04:32:50;93775.63;;;10.70;75.72
61128;BME280;47013;42.664;23.242;2023-04-30T04:35:18;93777.50;;;10.73;76.05
61128;BME280;47013;42.664;23.242;2023-04-30T04:37:44;93781.28;;;10.79;76.43
61128;BME280;47013;42.664;23.242;2023-04-30T04:40:09;93785.53;;;10.80;75.89
61128;BME280;47013;42.664;23.242;2023-04-30T04:42:36;93787.84;;;10.82;75.92
61128;BME280;47013;42.664;23.242;2023-04-30T04:45:02;93785.94;;;10.79;76.62
61128;BME280;47013;42.664;23.242;2023-04-30T04:47:28;93782.06;;;10.80;76.51
61128;BME280;47013;42.664;23.242;2023-04-30T04:49:54;93791.69;;;10.84;76.39
61128;BME280;47013;42.664;23.242;2023-04-30T04:52:19;93798.94;;;10.91;76.54
61128;BME280;47013;42.664;23.242;2023-04-30T04:54:44;93790.00;;;10.94;75.93
61128;BME280;47013;42.664;23.242;2023-04-30T04:57:09;93793.16;;;10.89;76.29
61128;BME280;47013;42.664;23.242;2023-04-30T04:59:35;93791.47;;;10.72;78.30
61128;BME280;47013;42.664;23.242;2023-04-30T05:02:00;93795.72;;;10.73;78.97
61128;BME280;47013;42.664;23.242;2023-04-30T05:04:25;93797.53;;;10.83;78.60
61128;BME280;47013;42.664;23.242;2023-04-30T05:06:51;93793.06;;;10.96;77.98
61128;BME280;47013;42.664;23.242;2023-04-30T05:09:16;93797.25;;;11.01;78.36
61128;BME280;47013;42.664;23.242;2023-04-30T05:11:41;93798.00;;;11.01;78.59
61128;BME280;47013;42.664;23.242;2023-04-30T05:14:08;93796.19;;;10.95;78.67
61128;BME280;47013;42.664;23.242;2023-04-30T05:16:33;93798.16;;;10.90;79.16
61128;BME280;47013;42.664;23.242;2023-04-30T05:18:58;93792.25;;;10.99;78.79
61128;BME280;47013;42.664;23.242;2023-04-30T05:21:24;93794.88;;;11.03;78.77
61128;BME280;47013;42.664;23.242;2023-04-30T05:23:53;93795.13;;;11.12;78.19
61128;BME280;47013;42.664;23.242;2023-04-30T05:26:18;93795.78;;;11.19;78.15
61128;BME280;47013;42.664;23.242;2023-04-30T05:28:43;93803.78;;;11.03;79.45
61128;BME280;47013;42.664;23.242;2023-04-30T05:31:09;93800.53;;;10.88;80.14
61128;BME280;47013;42.664;23.242;2023-04-30T05:33:34;93794.59;;;10.97;80.01
61128;BME280;47013;42.664;23.242;2023-04-30T05:36:01;93796.19;;;10.95;79.42
61128;BME280;47013;42.664;23.242;2023-04-30T05:38:26;93798.06;;;10.98;79.53
61128;BME280;47013;42.664;23.242;2023-04-30T05:40:52;93800.22;;;11.10;79.04
61128;BME280;47013;42.664;23.242;2023-04-30T05:43:17;93800.06;;;11.20;79.06
61128;BME280;47013;42.664;23.242;2023-04-30T05:45:42;93802.16;;;11.09;79.19
61128;BME280;47013;42.664;23.242;2023-04-30T05:48:07;93798.88;;;11.21;78.99
61128;BME280;47013;42.664;23.242;2023-04-30T05:50:33;93798.31;;;11.30;79.15
61128;BME280;47013;42.664;23.242;2023-04-30T05:52:58;93790.91;;;11.34;78.97
61128;BME280;47013;42.664;23.242;2023-04-30T05:55:23;93797.69;;;11.22;79.51
61128;BME280;47013;42.664;23.242;2023-04-30T05:57:48;93803.75;;;11.30;82.19
61128;BME280;47013;42.664;23.242;2023-04-30T06:00:14;93807.78;;;11.22;79.81
61128;BME280;47013;42.664;23.242;2023-04-30T06:02:40;93807.47;;;11.16;80.17
61128;BME280;47013;42.664;23.242;2023-04-30T06:05:06;93811.28;;;11.19;80.18
61128;BME280;47013;42.664;23.242;2023-04-30T06:07:31;93805.41;;;11.24;79.52
61128;BME280;47013;42.664;23.242;2023-04-30T06:09:57;93810.19;;;11.40;79.08
61128;BME280;47013;42.664;23.242;2023-04-30T06:12:22;93814.28;;;11.51;78.90
61128;BME280;47013;42.664;23.242;2023-04-30T06:14:48;93819.00;;;11.47;78.40
61128;BME280;47013;42.664;23.242;2023-04-30T06:17:13;93819.34;;;11.49;78.68
61128;BME280;47013;42.664;23.242;2023-04-30T06:19:39;93814.97;;;11.56;78.08
61128;BME280;47013;42.664;23.242;2023-04-30T06:22:05;93820.41;;;11.56;78.42
61128;BME280;47013;42.664;23.242;2023-04-30T06:24:30;93814.97;;;11.56;78.39
61128;BME280;47013;42.664;23.242;2023-04-30T06:26:55;93818.50;;;11.52;78.70
61128;BME280;47013;42.664;23.242;2023-04-30T06:29:21;93812.66;;;11.54;83.51
61128;BME280;47013;42.664;23.242;2023-04-30T06:31:48;93813.59;;;11.44;79.38
61128;BME280;47013;42.664;23.242;2023-04-30T06:34:13;93824.00;;;11.49;79.95
61128;BME280;47013;42.664;23.242;2023-04-30T06:36:38;93825.38;;;11.61;79.57
61128;BME280;47013;42.664;23.242;2023-04-30T06:39:04;93831.38;;;11.72;79.93
61128;BME280;47013;42.664;23.242;2023-04-30T06:41:29;93822.94;;;11.90;79.78
61128;BME280;47013;42.664;23.242;2023-04-30T06:43:54;93828.53;;;12.22;79.48
61128;BME280;47013;42.664;23.242;2023-04-30T06:46:20;93821.28;;;12.35;77.52
61128;BME280;47013;42.664;23.242;2023-04-30T06:48:45;93819.28;;;12.39;77.24
61128;BME280;47013;42.664;23.242;2023-04-30T06:51:10;93824.72;;;12.39;76.81
61128;BME280;47013;42.664;23.242;2023-04-30T06:53:35;93830.97;;;12.36;76.72
61128;BME280;47013;42.664;23.242;2023-04-30T06:56:01;93827.13;;;12.34;77.24
61128;BME280;47013;42.664;23.242;2023-04-30T06:58:26;93834.19;;;12.51;77.22
61128;BME280;47013;42.664;23.242;2023-04-30T07:00:51;93837.16;;;12.77;75.99
61128;BME280;47013;42.664;23.242;2023-04-30T07:03:17;93835.78;;;12.85;74.65
61128;BME280;47013;42.664;23.242;2023-04-30T07:05:43;93836.53;;;13.05;74.27
61128;BME280;47013;42.664;23.242;2023-04-30T07:08:08;93830.03;;;13.19;73.63
61128;BME280;47013;42.664;23.242;2023-04-30T07:10:33;93835.53;;;13.15;73.52
61128;BME280;47013;42.664;23.242;2023-04-30T07:12:59;93839.63;;;13.23;72.62
61128;BME280;47013;42.664;23.242;2023-04-30T07:15:24;93835.66;;;13.44;74.10
61128;BME280;47013;42.664;23.242;2023-04-30T07:17:49;93842.19;;;13.63;70.40
61128;BME280;47013;42.664;23.242;2023-04-30T07:20:15;93842.03;;;13.70;65.52
61128;BME280;47013;42.664;23.242;2023-04-30T07:22:43;93840.38;;;13.89;66.58
61128;BME280;47013;42.664;23.242;2023-04-30T07:25:10;93837.59;;;14.05;62.05
61128;BME280;47013;42.664;23.242;2023-04-30T07:27:35;93837.25;;;14.20;60.25
61128;BME280;47013;42.664;23.242;2023-04-30T07:30:01;93838.56;;;14.28;59.83
61128;BME280;47013;42.664;23.242;2023-04-30T07:32:26;93832.94;;;14.35;60.33
61128;BME280;47013;42.664;23.242;2023-04-30T07:34:52;93840.06;;;14.45;59.94
61128;BME280;47013;42.664;23.242;2023-04-30T07:37:17;93842.38;;;14.47;60.27
61128;BME280;47013;42.664;23.242;2023-04-30T07:39:42;93849.81;;;14.46;59.19
61128;BME280;47013;42.664;23.242;2023-04-30T07:42:07;93848.25;;;14.45;59.05
61128;BME280;47013;42.664;23.242;2023-04-30T07:44:33;93847.41;;;14.48;59.96
61128;BME280;47013;42.664;23.242;2023-04-30T07:46:58;93850.47;;;14.50;60.79
61128;BME280;47013;42.664;23.242;2023-04-30T07:49:24;93857.00;;;14.53;61.00
61128;BME280;47013;42.664;23.242;2023-04-30T07:51:49;93855.59;;;14.48;61.39
61128;BME280;47013;42.664;23.242;2023-04-30T07:54:15;93851.78;;;14.45;61.10
61128;BME280;47013;42.664;23.242;2023-04-30T07:56:40;93852.19;;;14.44;61.23
61128;BME280;47013;42.664;23.242;2023-04-30T07:59:06;93852.94;;;14.44;62.42
61128;BME280;47013;42.664;23.242;2023-04-30T08:01:32;93853.63;;;14.49;62.17
61128;BME280;47013;42.664;23.242;2023-04-30T08:03:57;93850.91;;;14.49;61.51
61128;BME280;47013;42.664;23.242;2023-04-30T08:06:22;93859.09;;;14.49;61.96
61128;BME280;47013;42.664;23.242;2023-04-30T08:08:47;93858.81;;;14.43;62.06
61128;BME280;47013;42.664;23.242;2023-04-30T08:11:13;93856.03;;;14.47;60.90
61128;BME280;47013;42.664;23.242;2023-04-30T08:13:39;93863.44;;;14.46;60.86
61128;BME280;47013;42.664;23.242;2023-04-30T08:16:05;93864.09;;;14.50;61.31
61128;BME280;47013;42.664;23.242;2023-04-30T08:18:31;93867.06;;;14.56;60.02
61128;BME280;47013;42.664;23.242;2023-04-30T08:20:56;93861.28;;;14.54;59.67
61128;BME280;47013;42.664;23.242;2023-04-30T08:23:21;93865.84;;;14.57;59.59
61128;BME280;47013;42.664;23.242;2023-04-30T08:25:46;93858.59;;;14.66;59.02
61128;BME280;47013;42.664;23.242;2023-04-30T08:28:12;93864.00;;;14.54;59.47
61128;BME280;47013;42.664;23.242;2023-04-30T08:30:37;93862.31;;;14.72;58.75
61128;BME280;47013;42.664;23.242;2023-04-30T08:33:03;93854.16;;;14.85;57.42
61128;BME280;47013;42.664;23.242;2023-04-30T08:35:28;93857.56;;;15.02;58.09
61128;BME280;47013;42.664;23.242;2023-04-30T08:37:54;93858.78;;;15.14;56.55
61128;BME280;47013;42.664;23.242;2023-04-30T08:40:19;93857.78;;;15.20;56.79
61128;BME280;47013;42.664;23.242;2023-04-30T08:42:46;93857.34;;;15.34;57.60
61128;BME280;47013;42.664;23.242;2023-04-30T08:45:14;93857.78;;;15.46;55.26
61128;BME280;47013;42.664;23.242;2023-04-30T08:47:40;93852.19;;;15.75;53.24
61128;BME280;47013;42.664;23.242;2023-04-30T08:50:06;93853.75;;;15.76;53.64
61128;BME280;47013;42.664;23.242;2023-04-30T08:52:32;93847.47;;;15.88;54.83
61128;BME280;47013;42.664;23.242;2023-04-30T08:54:58;93844.03;;;16.09;53.38
61128;BME280;47013;42.664;23.242;2023-04-30T08:57:25;93838.09;;;16.45;53.92
61128;BME280;47013;42.664;23.242;2023-04-30T08:59:51;93840.19;;;16.85;48.34
61128;BME280;47013;42.664;23.242;2023-04-30T09:02:16;93842.91;;;17.07;47.93
61128;BME280;47013;42.664;23.242;2023-04-30T09:04:41;93836.56;;;17.19;45.82
61128;BME280;47013;42.664;23.242;2023-04-30T09:07:06;93836.94;;;17.39;45.09
61128;BME280;47013;42.664;23.242;2023-04-30T09:09:39;93828.81;;;17.67;47.03
61128;BME280;47013;42.664;23.242;2023-04-30T09:14:37;93822.53;;;18.25;44.48
61128;BME280;47013;42.664;23.242;2023-04-30T09:17:04;93817.34;;;18.18;44.04
61128;BME280;47013;42.664;23.242;2023-04-30T09:19:29;93819.47;;;18.23;44.90
61128;BME280;47013;42.664;23.242;2023-04-30T09:21:55;93819.31;;;18.45;44.44
61128;BME280;47013;42.664;23.242;2023-04-30T09:24:21;93810.59;;;18.83;43.51
61128;BME280;47013;42.664;23.242;2023-04-30T09:26:47;93807.03;;;19.01;42.94
61128;BME280;47013;42.664;23.242;2023-04-30T09:29:12;93808.31;;;19.33;41.79
61128;BME280;47013;42.664;23.242;2023-04-30T09:31:39;93802.34;;;19.34;40.56
61128;BME280;47013;42.664;23.242;2023-04-30T09:34:04;93790.31;;;19.23;41.27
61128;BME280;47013;42.664;23.242;2023-04-30T09:36:33;93785.34;;;19.45;40.78
61128;BME280;47013;42.664;23.242;2023-04-30T09:39:05;93782.56;;;19.78;40.78
61128;BME280;47013;42.664;23.242;2023-04-30T09:41:30;93785.78;;;20.00;40.69
61128;BME280;47013;42.664;23.242;2023-04-30T09:43:56;93786.00;;;20.12;38.59
61128;BME280;47013;42.664;23.242;2023-04-30T09:46:28;93781.69;;;19.72;38.38
61128;BME280;47013;42.664;23.242;2023-04-30T09:49:01;93784.09;;;19.55;40.03
61128;BME280;47013;42.664;23.242;2023-04-30T09:51:26;93783.44;;;19.60;38.90
61128;BME280;47013;42.664;23.242;2023-04-30T09:53:53;93780.13;;;19.47;39.63
61128;BME280;47013;42.664;23.242;2023-04-30T09:56:22;93784.44;;;19.39;41.09
61128;BME280;47013;42.664;23.242;2023-04-30T09:58:51;93771.75;;;19.74;40.24
61128;BME280;47013;42.664;23.242;2023-04-30T10:01:17;93773.06;;;20.03;39.56
61128;BME280;47013;42.664;23.242;2023-04-30T10:03:43;93775.72;;;19.97;37.97
61128;BME280;47013;42.664;23.242;2023-04-30T10:06:11;93773.06;;;19.79;38.26
61128;BME280;47013;42.664;23.242;2023-04-30T10:08:41;93773.84;;;19.56;39.06
61128;BME280;47013;42.664;23.242;2023-04-30T10:11:07;93774.81;;;19.43;39.41
61128;BME280;47013;42.664;23.242;2023-04-30T10:18:45;93786.78;;;18.80;40.72
61128;BME280;47013;42.664;23.242;2023-04-30T10:21:13;93803.16;;;18.65;41.86
61128;BME280;47013;42.664;23.242;2023-04-30T10:23:41;93808.50;;;18.14;45.58
61128;BME280;47013;42.664;23.242;2023-04-30T10:26:08;93802.56;;;17.57;50.22
61128;BME280;47013;42.664;23.242;2023-04-30T10:28:35;93814.47;;;17.14;53.78
61128;BME280;47013;42.664;23.242;2023-04-30T10:31:01;93822.72;;;16.92;56.98
61128;BME280;47013;42.664;23.242;2023-04-30T10:33:36;93823.22;;;16.68;58.14
61128;BME280;47013;42.664;23.242;2023-04-30T10:36:06;93832.28;;;16.43;59.76
61128;BME280;47013;42.664;23.242;2023-04-30T10:38:35;93827.78;;;16.28;60.04
61128;BME280;47013;42.664;23.242;2023-04-30T10:41:01;93823.13;;;16.15;60.23
61128;BME280;47013;42.664;23.242;2023-04-30T10:43:30;93826.44;;;16.32;62.33
61128;BME280;47013;42.664;23.242;2023-04-30T10:45:56;93818.47;;;16.47;62.77
61128;BME280;47013;42.664;23.242;2023-04-30T10:48:22;93810.19;;;16.60;62.34
61128;BME280;47013;42.664;23.242;2023-04-30T10:50:55;93802.09;;;16.69;54.11
61128;BME280;47013;42.664;23.242;2023-04-30T10:53:20;93799.72;;;16.80;54.31
61128;BME280;47013;42.664;23.242;2023-04-30T11:03:36;93793.09;;;16.99;50.44
61128;BME280;47013;42.664;23.242;2023-04-30T11:06:12;93791.88;;;17.40;54.07
61128;BME280;47013;42.664;23.242;2023-04-30T11:08:39;93788.88;;;17.57;48.43
61128;BME280;47013;42.664;23.242;2023-04-30T11:11:07;93789.28;;;17.86;46.53
61128;BME280;47013;42.664;23.242;2023-04-30T11:13:39;93785.47;;;18.11;47.72
61128;BME280;47013;42.664;23.242;2023-04-30T11:16:06;93781.63;;;18.73;45.73
61128;BME280;47013;42.664;23.242;2023-04-30T11:18:31;93783.66;;;19.38;46.33
61128;BME280;47013;42.664;23.242;2023-04-30T11:20:56;93789.69;;;19.61;42.15
61128;BME280;47013;42.664;23.242;2023-04-30T11:23:22;93782.88;;;19.56;42.41
61128;BME280;47013;42.664;23.242;2023-04-30T11:25:48;93780.59;;;19.45;40.49
61128;BME280;47013;42.664;23.242;2023-04-30T11:30:49;93777.28;;;19.32;41.76
61128;BME280;47013;42.664;23.242;2023-04-30T11:33:15;93778.59;;;19.46;41.35
61128;BME280;47013;42.664;23.242;2023-04-30T11:35:40;93775.97;;;19.52;42.01
61128;BME280;47013;42.664;23.242;2023-04-30T11:38:06;93767.44;;;19.50;40.87
61128;BME280;47013;42.664;23.242;2023-04-30T11:40:33;93767.91;;;19.48;41.26
61128;BME280;47013;42.664;23.242;2023-04-30T11:42:59;93776.25;;;19.63;39.88
61128;BME280;47013;42.664;23.242;2023-04-30T11:45:24;93765.66;;;19.94;39.55
61128;BME280;47013;42.664;23.242;2023-04-30T11:47:52;93760.31;;;20.29;39.23
61128;BME280;47013;42.664;23.242;2023-04-30T11:50:19;93768.00;;;20.64;38.69
61128;BME280;47013;42.664;23.242;2023-04-30T11:52:49;93762.00;;;20.80;38.32
61128;BME280;47013;42.664;23.242;2023-04-30T11:55:16;93765.22;;;21.23;37.77
61128;BME280;47013;42.664;23.242;2023-04-30T11:57:42;93752.84;;;21.33;36.63
61128;BME280;47013;42.664;23.242;2023-04-30T12:02:37;93761.13;;;21.68;36.18
61128;BME280;47013;42.664;23.242;2023-04-30T12:05:02;93752.56;;;21.87;39.34
61128;BME280;47013;42.664;23.242;2023-04-30T12:07:28;93750.91;;;21.74;36.08
61128;BME280;47013;42.664;23.242;2023-04-30T12:09:53;93762.75;;;21.60;36.03
61128;BME280;47013;42.664;23.242;2023-04-30T12:12:28;93756.09;;;21.32;36.17
61128;BME280;47013;42.664;23.242;2023-04-30T12:14:53;93758.47;;;20.95;37.75
61128;BME280;47013;42.664;23.242;2023-04-30T12:17:34;93755.06;;;20.55;37.57
61128;BME280;47013;42.664;23.242;2023-04-30T12:19:59;93751.66;;;20.46;40.33
61128;BME280;47013;42.664;23.242;2023-04-30T12:22:26;93742.00;;;19.88;43.02
61128;BME280;47013;42.664;23.242;2023-04-30T12:24:53;93764.28;;;19.66;44.60
61128;BME280;47013;42.664;23.242;2023-04-30T12:27:18;93777.94;;;19.60;45.21
61128;BME280;47013;42.664;23.242;2023-04-30T12:29:45;93792.28;;;18.89;46.78
61128;BME280;47013;42.664;23.242;2023-04-30T12:32:12;93795.38;;;18.36;47.21
61128;BME280;47013;42.664;23.242;2023-04-30T12:34:40;93796.59;;;18.08;48.20
61128;BME280;47013;42.664;23.242;2023-04-30T12:37:06;93792.94;;;17.34;50.43
61128;BME280;47013;42.664;23.242;2023-04-30T12:39:34;93793.34;;;16.92;52.94
61128;BME280;47013;42.664;23.242;2023-04-30T12:41:59;93799.78;;;16.67;53.54
61128;BME280;47013;42.664;23.242;2023-04-30T12:44:25;93800.84;;;16.48;53.78
61128;BME280;47013;42.664;23.242;2023-04-30T12:46:52;93796.53;;;16.16;54.70
61128;BME280;47013;42.664;23.242;2023-04-30T12:51:55;93810.00;;;16.10;56.00
61128;BME280;47013;42.664;23.242;2023-04-30T12:54:27;93807.53;;;16.03;57.41
61128;BME280;47013;42.664;23.242;2023-04-30T13:02:16;93805.88;;;16.06;56.03
61128;BME280;47013;42.664;23.242;2023-04-30T13:04:42;93803.81;;;15.97;57.08
61128;BME280;47013;42.664;23.242;2023-04-30T13:07:07;93794.06;;;16.31;57.05
61128;BME280;47013;42.664;23.242;2023-04-30T13:09:33;93788.16;;;16.63;56.29
61128;BME280;47013;42.664;23.242;2023-04-30T13:11:59;93781.97;;;16.94;55.95
61128;BME280;47013;42.664;23.242;2023-04-30T13:14:24;93781.13;;;17.06;55.06
61128;BME280;47013;42.664;23.242;2023-04-30T13:16:49;93766.75;;;16.93;55.45
61128;BME280;47013;42.664;23.242;2023-04-30T13:19:15;93761.72;;;16.91;55.24
61128;BME280;47013;42.664;23.242;2023-04-30T13:21:40;93756.84;;;16.86;55.15
61128;BME280;47013;42.664;23.242;2023-04-30T13:24:05;93755.00;;;16.83;54.20
61128;BME280;47013;42.664;23.242;2023-04-30T13:26:31;93754.56;;;16.85;55.04
61128;BME280;47013;42.664;23.242;2023-04-30T13:28:56;93748.69;;;17.04;54.62
61128;BME280;47013;42.664;23.242;2023-04-30T13:31:21;93754.50;;;17.16;53.88
61128;BME280;47013;42.664;23.242;2023-04-30T13:33:47;93747.28;;;17.40;52.35
61128;BME280;47013;42.664;23.242;2023-04-30T13:36:12;93742.56;;;17.50;51.55
61128;BME280;47013;42.664;23.242;2023-04-30T13:38:37;93749.00;;;17.65;51.91
61128;BME280;47013;42.664;23.242;2023-04-30T13:41:06;93737.56;;;17.66;51.86
61128;BME280;47013;42.664;23.242;2023-04-30T13:43:31;93734.88;;;17.76;50.23
61128;BME280;47013;42.664;23.242;2023-04-30T13:45:57;93740.38;;;17.85;49.18
61128;BME280;47013;42.664;23.242;2023-04-30T13:48:23;93737.91;;;17.78;48.83
61128;BME280;47013;42.664;23.242;2023-04-30T13:50:48;93746.44;;;17.89;50.11
61128;BME280;47013;42.664;23.242;2023-04-30T13:53:13;93735.78;;;17.91;48.38
61128;BME280;47013;42.664;23.242;2023-04-30T13:55:39;93739.13;;;17.77;48.50
61128;BME280;47013;42.664;23.242;2023-04-30T13:58:04;93740.19;;;17.70;48.70
61128;BME280;47013;42.664;23.242;2023-04-30T14:00:29;93740.81;;;17.74;49.30
61128;BME280;47013;42.664;23.242;2023-04-30T14:02:55;93742.47;;;17.81;49.99
61128;BME280;47013;42.664;23.242;2023-04-30T14:05:20;93740.06;;;17.74;48.10
61128;BME280;47013;42.664;23.242;2023-04-30T14:07:45;93741.13;;;17.85;48.76
61128;BME280;47013;42.664;23.242;2023-04-30T14:10:10;93734.69;;;17.61;47.79